Zeus — V2OR — position and weather

sailwx.info

Track history (hours):
 
Tides and Currents Weather Stations Pressure Air Temp Water Temp Dewpoint Dewpoint Depression Visibility Wind Speed Wind Dir Waves Ship Positions

Zeus

Last reported at 2015-Aug-29 23:33 UTC. Time now 2015-Aug-30 01:39 UTC.
Position N 54°42' E 020°28'.

Length 89 m; draft 4.3 m.

MMSI: 304011025.

Date/timePositionNaut miles runAvg speedWind from/ knotsBaromVisibWave heightAir tempDewpointWater temp
2015-Aug-29 23:33N 54°42' E 020°28'23 2.1
2015-Aug-29 12:34N 54°39' E 019°48'3 0.5
2015-Aug-29 07:04N 54°41' E 019°44'5 9.1
2015-Aug-29 06:32N 54°43' E 019°36'1010.6
2015-Aug-29 05:34N 54°47' E 019°19'8 8.4
2015-Aug-29 04:33N 54°50' E 019°06'8 8.2
2015-Aug-29 03:33N 54°53' E 018°52'8 8.2
2015-Aug-29 02:33N 54°56' E 018°39'8 7.6
2015-Aug-29 01:34N 54°57' E 018°26'8 8.1
2015-Aug-29 00:31N 54°57' E 018°11'8 8.3
2015-Aug-28 23:30N 54°56' E 017°57'16 8.0
2015-Aug-28 21:33N 54°53' E 017°30'182 8.3
2015-Aug-27 23:33N 54°31' E 012°17'9 8.7
2015-Aug-27 22:33N 54°24' E 012°07'10 9.6
2015-Aug-27 21:33N 54°24' E 011°51'10 9.9
2015-Aug-27 20:33N 54°28' E 011°35'1010.2
2015-Aug-27 19:33N 54°33' E 011°19'24 9.7
2015-Aug-27 17:04N 54°34' E 010°37'5 9.8
2015-Aug-27 16:33N 54°32' E 010°29'10 9.7
2015-Aug-27 15:33N 54°27' E 010°15'6 6.3
2015-Aug-27 14:33N 54°22' E 010°09'4 3.7
2015-Aug-27 13:33N 54°22' E 010°02'8 8.0
2015-Aug-27 12:33N 54°22' E 009°48'22 6.7
2015-Aug-27 09:17N 54°08' E 009°20'6 8.8
2015-Aug-27 08:33N 54°01' E 009°18'  
Track history (hours):
 
Tides and Currents Weather Stations Pressure Air Temp Water Temp Dewpoint Dewpoint Depression Visibility Wind Speed Wind Dir Waves Ship Positions

Zeus

Last reported at 2015-Aug-29 23:33 UTC. Time now 2015-Aug-30 01:39 UTC.
Position N 54°42' E 020°28'.

Length 89 m; draft 4.3 m.

MMSI: 304011025.

Date/timePositionNaut miles runAvg speedWind from/ knotsBaromVisibWave heightAir tempDewpointWater temp
2015-Aug-29 23:33N 54°42' E 020°28'23 2.1
2015-Aug-29 12:34N 54°39' E 019°48'3 0.5
2015-Aug-29 07:04N 54°41' E 019°44'5 9.1
2015-Aug-29 06:32N 54°43' E 019°36'1010.6
2015-Aug-29 05:34N 54°47' E 019°19'8 8.4
2015-Aug-29 04:33N 54°50' E 019°06'8 8.2
2015-Aug-29 03:33N 54°53' E 018°52'8 8.2
2015-Aug-29 02:33N 54°56' E 018°39'8 7.6
2015-Aug-29 01:34N 54°57' E 018°26'8 8.1
2015-Aug-29 00:31N 54°57' E 018°11'8 8.3
2015-Aug-28 23:30N 54°56' E 017°57'16 8.0
2015-Aug-28 21:33N 54°53' E 017°30'182 8.3
2015-Aug-27 23:33N 54°31' E 012°17'9 8.7
2015-Aug-27 22:33N 54°24' E 012°07'10 9.6
2015-Aug-27 21:33N 54°24' E 011°51'10 9.9
2015-Aug-27 20:33N 54°28' E 011°35'1010.2
2015-Aug-27 19:33N 54°33' E 011°19'24 9.7
2015-Aug-27 17:04N 54°34' E 010°37'5 9.8
2015-Aug-27 16:33N 54°32' E 010°29'10 9.7
2015-Aug-27 15:33N 54°27' E 010°15'6 6.3
2015-Aug-27 14:33N 54°22' E 010°09'4 3.7
2015-Aug-27 13:33N 54°22' E 010°02'8 8.0
2015-Aug-27 12:33N 54°22' E 009°48'22 6.7
2015-Aug-27 09:17N 54°08' E 009°20'6 8.8
2015-Aug-27 08:33N 54°01' E 009°18'  

Dump ship's entire track history